createdAt,value
2022-12-14T00:01:48.722Z,95236.94
2022-12-14T00:04:18.425Z,95236.97
2022-12-14T00:06:47.412Z,95238.53
2022-12-14T00:09:17.096Z,95232.56
2022-12-14T00:11:45.857Z,95237.28
2022-12-14T00:14:14.807Z,95222.78
2022-12-14T00:16:43.273Z,95220.47
2022-12-14T00:19:13.707Z,95247.59
2022-12-14T00:21:42.132Z,95247.16
2022-12-14T00:24:12.867Z,95240.63
2022-12-14T00:26:41.266Z,95232.69
2022-12-14T00:29:10.160Z,95210.38
2022-12-14T00:31:38.586Z,95206.63
2022-12-14T00:34:07.682Z,95205.03
2022-12-14T00:36:37.943Z,95207.84
2022-12-14T00:39:06.794Z,95204.25
2022-12-14T00:41:35.156Z,95200.75
2022-12-14T00:44:04.373Z,95213.53
2022-12-14T00:46:32.856Z,95205.91
2022-12-14T00:49:01.719Z,95205.44
2022-12-14T00:51:30.412Z,95216.13
2022-12-14T00:54:00.750Z,95219.06
2022-12-14T00:56:29.158Z,95223.91
2022-12-14T00:58:58.055Z,95239.78
2022-12-14T01:01:30.489Z,95228.75
2022-12-14T01:04:17.342Z,95234.31
2022-12-14T01:06:47.183Z,95233.84
2022-12-14T01:09:17.803Z,95247.13
2022-12-14T01:11:46.313Z,95253.63
2022-12-14T01:14:18.800Z,95251.91
2022-12-14T01:16:47.239Z,95244.44
2022-12-14T01:19:17.030Z,95235.56
2022-12-14T01:21:45.389Z,95237.28
2022-12-14T01:24:14.209Z,95237.75
2022-12-14T01:26:43.994Z,95234.91
2022-12-14T01:29:13.234Z,95235.59
2022-12-14T01:31:41.664Z,95225.03
2022-12-14T01:34:11.086Z,95222.47
2022-12-14T01:36:40.039Z,95240.69
2022-12-14T01:39:13.894Z,95239.53
2022-12-14T01:41:45.867Z,95233.06
2022-12-14T01:44:52.404Z,95228.16
2022-12-14T01:47:26.298Z,95206.63
2022-12-14T01:50:01.546Z,95211.22
2022-12-14T01:52:36.539Z,95197.34
2022-12-14T01:55:09.387Z,95202.69
2022-12-14T01:57:43.058Z,95197.09
2022-12-14T02:00:14.347Z,95180.19
2022-12-14T02:02:47.445Z,95198.50
2022-12-14T02:05:17.946Z,95192.88
2022-12-14T02:07:49.197Z,95191.38
2022-12-14T02:10:19.206Z,95188.53
2022-12-14T02:12:56.544Z,95187.41
2022-12-14T02:15:26.607Z,95190.75
2022-12-14T02:17:55.130Z,95188.56
2022-12-14T02:20:24.627Z,95179.38
2022-12-14T02:23:29.645Z,95174.19
2022-12-14T02:26:25.753Z,95164.72
2022-12-14T02:29:30.096Z,95173.38
2022-12-14T02:32:06.775Z,95178.81
2022-12-14T02:34:49.131Z,95176.16
2022-12-14T02:37:24.099Z,95160.78
2022-12-14T02:40:01.994Z,95152.66
2022-12-14T02:42:42.671Z,95150.22
2022-12-14T02:45:18.745Z,95160.91
2022-12-14T02:47:55.300Z,95163.00
2022-12-14T02:50:28.952Z,95166.38
2022-12-14T02:53:05.391Z,95140.28
2022-12-14T02:55:39.107Z,95172.53
2022-12-14T02:58:13.162Z,95169.41
2022-12-14T03:00:44.374Z,95173.97
2022-12-14T03:03:13.101Z,95153.53
2022-12-14T03:05:42.006Z,95147.53
2022-12-14T03:08:14.360Z,95143.78
2022-12-14T03:10:49.779Z,95145.59
2022-12-14T03:13:23.386Z,95131.94
2022-12-14T03:15:59.501Z,95134.47
2022-12-14T03:18:35.430Z,95128.66
2022-12-14T03:21:08.885Z,95113.13
2022-12-14T03:23:41.155Z,95099.63
2022-12-14T03:26:15.240Z,95119.84
2022-12-14T03:28:48.597Z,95124.81
2022-12-14T03:31:23.286Z,95137.94
2022-12-14T03:33:54.940Z,95133.94
2022-12-14T03:36:28.428Z,95129.28
2022-12-14T03:39:02.008Z,95119.00
2022-12-14T03:41:39.027Z,95125.53
2022-12-14T03:44:17.556Z,95132.28
2022-12-14T03:46:57.493Z,95128.66
2022-12-14T03:49:39.413Z,95118.50
2022-12-14T03:52:13.392Z,95103.28
2022-12-14T03:54:51.047Z,95110.03
2022-12-14T03:57:31.011Z,95110.22
2022-12-14T04:00:04.074Z,95089.97
2022-12-14T04:02:51.896Z,95088.06
2022-12-14T04:05:26.565Z,95081.19
2022-12-14T04:08:05.116Z,95096.25
2022-12-14T04:10:58.968Z,95095.91
2022-12-14T04:13:52.577Z,95097.63
2022-12-14T04:16:44.278Z,95096.63
2022-12-14T04:19:19.427Z,95095.50
2022-12-14T04:21:53.007Z,95095.91
2022-12-14T04:24:46.370Z,95097.53
2022-12-14T04:27:20.900Z,95095.78
2022-12-14T04:29:59.132Z,95091.31
2022-12-14T04:32:33.133Z,95095.25
2022-12-14T04:35:08.999Z,95098.06
2022-12-14T04:37:40.423Z,95094.03
2022-12-14T04:40:12.275Z,95094.25
2022-12-14T04:42:48.252Z,95075.88
2022-12-14T04:45:22.906Z,95071.00
2022-12-14T04:47:59.095Z,95062.88
2022-12-14T04:50:32.132Z,95071.72
2022-12-14T04:53:06.386Z,95064.22
2022-12-14T04:55:40.214Z,95072.78
2022-12-14T04:58:14.599Z,95071.84
2022-12-14T05:00:56.759Z,95062.47
2022-12-14T05:03:30.861Z,95064.84
2022-12-14T05:06:10.018Z,95071.16
2022-12-14T05:09:03.075Z,95071.78
2022-12-14T05:11:54.717Z,95061.81
2022-12-14T05:14:32.249Z,95062.94
2022-12-14T05:17:08.426Z,95053.56
2022-12-14T05:19:38.359Z,95051.81
2022-12-14T05:22:10.200Z,95056.78
2022-12-14T05:24:38.622Z,95038.88
2022-12-14T05:27:07.499Z,95032.34
2022-12-14T05:29:35.923Z,95040.09
2022-12-14T05:32:05.174Z,95039.06
2022-12-14T05:34:34.643Z,95046.66
2022-12-14T05:37:03.002Z,95048.34
2022-12-14T05:39:33.017Z,95045.50
2022-12-14T05:42:01.895Z,95042.47
2022-12-14T05:44:30.589Z,95043.81
2022-12-14T05:46:59.455Z,95036.88
2022-12-14T05:49:27.761Z,95019.72
2022-12-14T05:51:56.163Z,95011.00
2022-12-14T05:54:24.590Z,94999.34
2022-12-14T05:56:55.327Z,95007.88
2022-12-14T05:59:24.255Z,95007.09
2022-12-14T06:01:53.281Z,95010.13
2022-12-14T06:04:22.469Z,95004.41
2022-12-14T06:06:50.932Z,94992.47
2022-12-14T06:09:20.765Z,94990.84
2022-12-14T06:11:50.474Z,94985.53
2022-12-14T06:14:21.049Z,94976.41
2022-12-14T06:16:49.402Z,94984.59
2022-12-14T06:19:18.411Z,94988.06
2022-12-14T06:21:47.133Z,94949.84
2022-12-14T06:24:15.647Z,94977.09
2022-12-14T06:26:44.993Z,94968.19
2022-12-14T06:29:16.843Z,94960.97
2022-12-14T06:31:49.027Z,94971.44
2022-12-14T06:34:18.134Z,94965.00
2022-12-14T06:36:48.239Z,94955.91
2022-12-14T06:39:17.979Z,94959.00
2022-12-14T06:41:51.014Z,94959.13
2022-12-14T06:44:20.100Z,94950.38
2022-12-14T06:46:50.114Z,94941.38
2022-12-14T06:49:19.066Z,94932.88
2022-12-14T06:51:47.717Z,94928.81
2022-12-14T06:54:17.533Z,94930.00
2022-12-14T06:56:48.319Z,94941.03
2022-12-14T06:59:17.426Z,94937.97
2022-12-14T07:01:50.037Z,94934.66
2022-12-14T07:04:21.413Z,94933.84
2022-12-14T07:06:50.912Z,94947.34
2022-12-14T07:09:19.585Z,94954.06
2022-12-14T07:11:50.947Z,94955.91
2022-12-14T07:14:19.374Z,94947.53
2022-12-14T07:16:49.311Z,94966.81
2022-12-14T07:19:20.327Z,94966.16
2022-12-14T07:21:48.737Z,94963.47
2022-12-14T07:24:17.850Z,94950.53
2022-12-14T07:26:46.743Z,94946.91
2022-12-14T07:29:16.856Z,94914.53
2022-12-14T07:31:49.413Z,94920.47
2022-12-14T07:34:20.675Z,94932.59
2022-12-14T07:36:51.457Z,94931.38
2022-12-14T07:39:20.487Z,94932.53
2022-12-14T07:41:50.536Z,94929.69
2022-12-14T07:44:23.544Z,94936.56
2022-12-14T07:46:52.112Z,94938.03
2022-12-14T07:49:22.518Z,94940.25
2022-12-14T07:51:52.936Z,94940.28
2022-12-14T07:54:22.046Z,94931.81
2022-12-14T07:56:50.904Z,94898.47
2022-12-14T07:59:19.838Z,94930.88
2022-12-14T08:01:48.357Z,94900.25
2022-12-14T08:04:20.368Z,94932.78
2022-12-14T08:06:50.617Z,94929.72
2022-12-14T08:09:20.269Z,94930.28
2022-12-14T08:11:48.904Z,94934.38
2022-12-14T08:14:19.208Z,94937.88
2022-12-14T08:16:50.522Z,94923.59
2022-12-14T08:19:20.024Z,94915.41
2022-12-14T08:21:50.166Z,94892.53
2022-12-14T08:24:18.520Z,94899.06
2022-12-14T08:26:49.441Z,94888.91
2022-12-14T08:29:19.087Z,94896.91
2022-12-14T08:31:48.048Z,94894.50
2022-12-14T08:34:21.915Z,94897.38
2022-12-14T08:36:52.211Z,94905.81
2022-12-14T08:39:21.176Z,94907.38
2022-12-14T08:41:49.951Z,94900.06
2022-12-14T08:44:18.670Z,94898.19
2022-12-14T08:46:47.641Z,94897.00
2022-12-14T08:49:16.314Z,94901.22
2022-12-14T08:51:45.088Z,94886.34
2022-12-14T08:54:15.067Z,94871.03
2022-12-14T08:56:44.824Z,94878.78
2022-12-14T08:59:30.265Z,94888.81
2022-12-14T09:02:02.484Z,94895.19
2022-12-14T09:04:30.911Z,94887.41
2022-12-14T09:06:59.318Z,94890.31
2022-12-14T09:09:29.971Z,94895.97
2022-12-14T09:12:03.258Z,94901.34
2022-12-14T09:14:32.232Z,94898.06
2022-12-14T09:17:01.102Z,94890.75
2022-12-14T09:19:30.786Z,94890.16
2022-12-14T09:21:59.432Z,94885.44
2022-12-14T09:24:29.457Z,94883.63
2022-12-14T09:27:01.489Z,94878.31
2022-12-14T09:29:31.345Z,94874.84
2022-12-14T09:31:59.796Z,94867.50
2022-12-14T09:34:29.891Z,94856.47
2022-12-14T09:36:59.030Z,94827.50
2022-12-14T09:39:29.710Z,94832.00
2022-12-14T09:42:10.094Z,94831.19
2022-12-14T09:44:47.827Z,94825.06
2022-12-14T09:47:20.214Z,94820.78
2022-12-14T09:49:52.637Z,94807.69
2022-12-14T09:52:24.859Z,94804.47
2022-12-14T09:54:56.327Z,94794.06
2022-12-14T09:57:30.044Z,94778.31
2022-12-14T09:59:58.743Z,94787.53
2022-12-14T10:02:38.483Z,94785.09
2022-12-14T10:05:24.815Z,94791.22
2022-12-14T10:08:02.852Z,94781.19
2022-12-14T10:10:40.201Z,94768.75
2022-12-14T10:13:21.141Z,94772.06
2022-12-14T10:15:59.451Z,94771.84
2022-12-14T10:18:59.505Z,94761.84
2022-12-14T10:21:39.403Z,94758.78
2022-12-14T10:24:14.701Z,94750.19
2022-12-14T10:26:48.091Z,94743.88
2022-12-14T10:29:23.206Z,94745.50
2022-12-14T10:32:00.666Z,94723.47
2022-12-14T10:34:31.294Z,94724.88
2022-12-14T10:37:13.626Z,94723.66
2022-12-14T10:39:54.925Z,94726.53
2022-12-14T10:42:32.544Z,94699.38
2022-12-14T10:48:23.696Z,94696.47
2022-12-14T10:50:58.217Z,94698.31
2022-12-14T10:53:35.808Z,94687.50
2022-12-14T10:56:15.451Z,94705.25
2022-12-14T10:58:46.256Z,94700.53
2022-12-14T11:01:16.044Z,94693.97
2022-12-14T11:03:49.711Z,94700.72
2022-12-14T11:06:21.116Z,94700.13
2022-12-14T11:08:51.139Z,94687.03
2022-12-14T11:11:22.929Z,94686.38
2022-12-14T11:13:55.280Z,94682.91
2022-12-14T11:16:36.745Z,94673.28
2022-12-14T11:19:06.927Z,94682.88
2022-12-14T11:21:38.515Z,94670.22
2022-12-14T11:24:08.907Z,94677.19
2022-12-14T11:26:41.684Z,94677.78
2022-12-14T11:29:22.158Z,94680.00
2022-12-14T11:31:52.754Z,94678.00
2022-12-14T11:34:27.052Z,94674.84
2022-12-14T11:36:55.508Z,94670.97
2022-12-14T11:39:26.042Z,94661.00
2022-12-14T11:42:02.769Z,94664.63
2022-12-14T11:44:36.460Z,94663.78
2022-12-14T11:47:08.665Z,94672.38
2022-12-14T11:49:45.097Z,94669.25
2022-12-14T11:52:17.623Z,94678.63
2022-12-14T11:54:50.149Z,94678.41
2022-12-14T11:57:26.092Z,94672.69
2022-12-14T11:59:59.392Z,94666.75
2022-12-14T12:02:31.253Z,94652.03
2022-12-14T12:05:08.866Z,94660.13
2022-12-14T12:07:40.500Z,94659.09
2022-12-14T12:10:19.853Z,94680.63
2022-12-14T12:12:54.214Z,94675.72
2022-12-14T12:15:36.538Z,94676.09
2022-12-14T12:18:09.959Z,94678.53
2022-12-14T12:20:42.535Z,94659.31
2022-12-14T12:23:15.558Z,94669.91
2022-12-14T12:25:46.997Z,94665.56
2022-12-14T12:28:20.679Z,94647.38
2022-12-14T12:30:55.922Z,94656.13
2022-12-14T12:33:32.578Z,94633.78
2022-12-14T12:36:04.690Z,94650.13
2022-12-14T12:38:51.600Z,94640.84
2022-12-14T12:41:30.387Z,94636.19
2022-12-14T12:44:03.521Z,94635.63
2022-12-14T12:46:53.569Z,94636.13
2022-12-14T12:49:27.377Z,94627.97
2022-12-14T12:52:00.706Z,94621.25
2022-12-14T12:54:36.309Z,94619.84
2022-12-14T12:57:07.978Z,94623.72
2022-12-14T12:59:41.631Z,94615.75
2022-12-14T13:02:23.080Z,94616.41
2022-12-14T13:04:53.892Z,94594.97
2022-12-14T13:07:31.839Z,94619.66
2022-12-14T13:10:06.059Z,94619.97
2022-12-14T13:12:39.970Z,94622.59
2022-12-14T13:15:19.181Z,94622.38
2022-12-14T13:17:53.036Z,94623.03
2022-12-14T13:20:25.441Z,94621.66
2022-12-14T13:22:55.188Z,94617.13
2022-12-14T13:25:28.360Z,94622.28
2022-12-14T13:28:22.170Z,94610.38
2022-12-14T13:31:03.008Z,94618.81
2022-12-14T13:34:08.129Z,94609.06
2022-12-14T13:37:11.096Z,94612.31
2022-12-14T13:40:19.465Z,94623.19
2022-12-14T13:42:59.093Z,94602.59
2022-12-14T13:45:31.311Z,94603.19
2022-12-14T13:48:00.521Z,94609.75
2022-12-14T13:50:36.684Z,94600.50
2022-12-14T13:53:14.497Z,94605.00
2022-12-14T13:55:49.252Z,94599.31
2022-12-14T13:58:21.072Z,94599.75
2022-12-14T14:00:59.846Z,94603.84
2022-12-14T14:03:53.084Z,94596.88
2022-12-14T14:06:38.175Z,94605.25
2022-12-14T14:09:59.749Z,94607.50
2022-12-14T14:12:46.459Z,94619.97
2022-12-14T14:15:29.425Z,94600.00
2022-12-14T14:18:08.582Z,94627.22
2022-12-14T14:20:42.590Z,94630.47
2022-12-14T14:23:33.196Z,94619.47
2022-12-14T14:26:19.204Z,94634.19
2022-12-14T14:29:05.562Z,94610.00
2022-12-14T14:31:52.841Z,94637.53
2022-12-14T14:34:25.923Z,94615.00
2022-12-14T14:36:55.035Z,94620.69
2022-12-14T14:39:56.205Z,94626.16
2022-12-14T14:42:28.495Z,94617.34
2022-12-14T14:44:59.269Z,94620.66
2022-12-14T14:47:32.768Z,94631.91
2022-12-14T14:50:04.203Z,94625.72
2022-12-14T14:53:01.375Z,94625.50
2022-12-14T14:55:54.120Z,94634.47
2022-12-14T14:58:28.662Z,94630.13
2022-12-14T15:01:03.634Z,94637.25
2022-12-14T15:03:46.446Z,94636.00
2022-12-14T15:06:17.094Z,94648.44
2022-12-14T15:08:50.126Z,94648.38
2022-12-14T15:11:22.480Z,94642.19
2022-12-14T15:13:55.129Z,94636.00
2022-12-14T15:16:29.779Z,94628.41
2022-12-14T15:19:21.922Z,94637.59
2022-12-14T15:21:53.289Z,94619.75
2022-12-14T15:24:23.253Z,94643.06
2022-12-14T15:26:53.917Z,94642.25
2022-12-14T15:29:27.876Z,94644.25
2022-12-14T15:32:00.862Z,94644.66
2022-12-14T15:34:29.614Z,94645.47
2022-12-14T15:36:58.749Z,94654.03
2022-12-14T15:39:40.268Z,94671.63
2022-12-14T15:42:15.681Z,94658.31
2022-12-14T15:44:51.560Z,94669.38
2022-12-14T15:47:26.107Z,94660.34
2022-12-14T15:49:59.698Z,94680.00
2022-12-14T15:52:31.701Z,94683.50
2022-12-14T15:55:01.173Z,94679.56
2022-12-14T15:57:31.642Z,94685.47
2022-12-14T16:00:00.630Z,94684.44
2022-12-14T16:02:32.182Z,94686.69
2022-12-14T16:05:03.533Z,94685.41
2022-12-14T16:07:39.904Z,94686.47
2022-12-14T16:10:20.320Z,94685.88
2022-12-14T16:12:53.879Z,94679.13
2022-12-14T16:15:24.979Z,94691.41
2022-12-14T16:18:01.441Z,94678.75
2022-12-14T16:20:34.940Z,94689.84
2022-12-14T16:23:07.357Z,94692.34
2022-12-14T16:25:36.811Z,94695.22
2022-12-14T16:28:23.172Z,94692.75
2022-12-14T16:30:57.288Z,94681.34
2022-12-14T16:33:26.715Z,94695.50
2022-12-14T16:36:07.351Z,94707.91
2022-12-14T16:38:42.791Z,94714.81
2022-12-14T16:41:11.293Z,94724.00
2022-12-14T16:43:42.843Z,94732.38
2022-12-14T16:46:17.496Z,94723.75
2022-12-14T16:48:50.316Z,94731.50
2022-12-14T16:51:58.190Z,94719.44
2022-12-14T16:54:27.061Z,94733.53
2022-12-14T16:57:01.982Z,94737.81
2022-12-14T16:59:41.065Z,94737.59
2022-12-14T17:02:28.192Z,94752.16
2022-12-14T17:04:58.611Z,94769.78
2022-12-14T17:07:30.189Z,94768.72
2022-12-14T17:09:59.336Z,94772.22
2022-12-14T17:12:27.956Z,94770.34
2022-12-14T17:14:57.864Z,94764.22
2022-12-14T17:17:32.871Z,94762.38
2022-12-14T17:20:02.693Z,94768.50
2022-12-14T17:22:34.101Z,94766.47
2022-12-14T17:25:03.467Z,94768.50
2022-12-14T17:27:32.109Z,94784.31
2022-12-14T17:30:02.821Z,94784.06
2022-12-14T17:32:31.814Z,94790.00
2022-12-14T17:35:01.008Z,94790.59
2022-12-14T17:37:34.289Z,94791.63
2022-12-14T17:40:07.508Z,94794.28
2022-12-14T17:42:38.631Z,94791.63
2022-12-14T17:45:21.277Z,94788.75
2022-12-14T17:47:50.735Z,94793.09
2022-12-14T17:50:20.353Z,94803.00
2022-12-14T17:52:50.721Z,94805.22
2022-12-14T17:55:21.773Z,94792.75
2022-12-14T17:57:50.716Z,94799.22
2022-12-14T18:00:40.117Z,94796.38
2022-12-14T18:03:10.261Z,94804.66
2022-12-14T18:05:44.886Z,94796.34
2022-12-14T18:08:15.068Z,94818.19
2022-12-14T18:10:44.150Z,94818.75
2022-12-14T18:13:13.427Z,94810.00
2022-12-14T18:15:50.192Z,94812.66
2022-12-14T18:18:19.695Z,94822.53
2022-12-14T18:20:51.407Z,94827.19
2022-12-14T18:23:21.006Z,94838.88
2022-12-14T18:25:51.694Z,94838.50
2022-12-14T18:28:21.681Z,94841.59
2022-12-14T18:30:55.547Z,94840.41
2022-12-14T18:33:25.357Z,94844.31
2022-12-14T18:35:56.678Z,94848.22
2022-12-14T18:38:25.513Z,94852.75
2022-12-14T18:40:58.579Z,94849.28
2022-12-14T18:43:29.417Z,94854.59
2022-12-14T18:46:00.419Z,94852.97
2022-12-14T18:48:28.868Z,94871.19
2022-12-14T18:50:57.421Z,94861.56
2022-12-14T18:53:27.222Z,94861.19
2022-12-14T18:55:55.940Z,94878.94
2022-12-14T18:58:27.332Z,94879.78
2022-12-14T19:00:58.116Z,94893.94
2022-12-14T19:03:31.641Z,94894.75
2022-12-14T19:06:34.859Z,94901.09
2022-12-14T19:08:54.630Z,94891.72
2022-12-14T19:11:30.394Z,94903.97
2022-12-14T19:13:59.312Z,94903.59
2022-12-14T19:16:28.313Z,94908.94
2022-12-14T19:18:58.661Z,94908.34
2022-12-14T19:21:27.928Z,94913.22
2022-12-14T19:23:57.330Z,94915.88
2022-12-14T19:26:28.042Z,94913.22
2022-12-14T19:28:56.797Z,94908.75
2022-12-14T19:31:25.308Z,94901.19
2022-12-14T19:33:54.697Z,94907.13
2022-12-14T19:36:25.159Z,94900.97
2022-12-14T19:38:53.992Z,94898.31
2022-12-14T19:41:22.386Z,94915.56
2022-12-14T19:43:51.013Z,94912.25
2022-12-14T19:46:20.241Z,94917.19
2022-12-14T19:48:48.659Z,94912.47
2022-12-14T19:51:19.350Z,94913.75
2022-12-14T19:53:49.328Z,94906.34
2022-12-14T19:56:19.529Z,94912.47
2022-12-14T19:58:48.698Z,94914.34
2022-12-14T20:01:19.096Z,94909.44
2022-12-14T20:03:49.475Z,94913.28
2022-12-14T20:06:18.325Z,94926.44
2022-12-14T20:08:49.391Z,94928.72
2022-12-14T20:11:20.629Z,94932.19
2022-12-14T20:13:54.901Z,94937.09
2022-12-14T20:16:27.734Z,94945.88
2022-12-14T20:18:56.237Z,94944.75
2022-12-14T20:21:29.184Z,94942.53
2022-12-14T20:23:58.478Z,94944.78
2022-12-14T20:26:29.561Z,94948.94
2022-12-14T20:29:00.941Z,94958.81
2022-12-14T20:31:29.765Z,94962.31
2022-12-14T20:34:00.101Z,94969.28
2022-12-14T20:36:28.972Z,94967.25
2022-12-14T20:38:58.359Z,94971.16
2022-12-14T20:41:31.653Z,94956.44
2022-12-14T20:44:02.045Z,94957.72
2022-12-14T20:46:32.557Z,94972.44
2022-12-14T20:49:04.382Z,94979.16
2022-12-14T20:51:34.740Z,94979.81
2022-12-14T20:54:04.055Z,94990.88
2022-12-14T20:56:35.374Z,94988.22
2022-12-14T20:59:04.363Z,94978.00
2022-12-14T21:01:33.287Z,94987.84
2022-12-14T21:04:02.425Z,94992.50
2022-12-14T21:06:30.815Z,94991.94
2022-12-14T21:09:05.504Z,94994.19
2022-12-14T21:11:54.461Z,95006.28
2022-12-14T21:14:25.953Z,95007.72
2022-12-14T21:16:54.916Z,95004.06
2022-12-14T21:19:24.603Z,95005.06
2022-12-14T21:21:54.162Z,95006.72
2022-12-14T21:25:01.138Z,95011.03
2022-12-14T21:27:16.973Z,95024.72
2022-12-14T21:29:46.487Z,95025.34
2022-12-14T21:32:16.056Z,95028.81
2022-12-14T21:34:46.092Z,95031.06
2022-12-14T21:37:15.318Z,95032.53
2022-12-14T21:39:51.869Z,95027.38
2022-12-14T21:42:23.578Z,95033.13
2022-12-14T21:44:53.452Z,95036.81
2022-12-14T21:47:23.553Z,95043.78
2022-12-14T21:49:52.647Z,95017.41
2022-12-14T21:52:23.189Z,95042.31
2022-12-14T21:54:52.189Z,95042.31
2022-12-14T21:57:40.057Z,95043.34
2022-12-14T22:00:12.648Z,95022.06
2022-12-14T22:02:42.666Z,95043.34
2022-12-14T22:05:12.044Z,95042.16
2022-12-14T22:07:40.735Z,95049.50
2022-12-14T22:10:09.827Z,95048.50
2022-12-14T22:12:38.192Z,95050.75
2022-12-14T22:15:08.523Z,95062.00
2022-12-14T22:17:38.494Z,95061.00
2022-12-14T22:20:09.053Z,95069.16
2022-12-14T22:22:37.526Z,95063.84
2022-12-14T22:25:07.403Z,95063.91
2022-12-14T22:27:35.807Z,95066.53
2022-12-14T22:30:05.665Z,95066.34
2022-12-14T22:32:34.085Z,95068.59
2022-12-14T22:35:04.897Z,95072.69
2022-12-14T22:37:33.393Z,95073.69
2022-12-14T22:40:02.555Z,95073.50
2022-12-14T22:42:31.125Z,95058.94
2022-12-14T22:45:00.316Z,95074.50
2022-12-14T22:47:29.638Z,95083.34
2022-12-14T22:49:58.704Z,95067.16
2022-12-14T22:52:28.424Z,95064.50
2022-12-14T22:54:57.219Z,95070.44
2022-12-14T22:57:25.792Z,95064.09
2022-12-14T22:59:58.722Z,95053.03
2022-12-14T23:02:27.509Z,95054.25
2022-12-14T23:04:57.007Z,95056.91
2022-12-14T23:07:26.045Z,95053.25
2022-12-14T23:10:13.710Z,95056.31
2022-12-14T23:12:59.825Z,95048.94
2022-12-14T23:15:45.881Z,95051.41
2022-12-14T23:18:31.917Z,95058.16
2022-12-14T23:21:18.154Z,95070.84
2022-12-14T23:24:04.627Z,95072.88
2022-12-14T23:26:52.722Z,95082.72
2022-12-14T23:29:38.706Z,95084.16
2022-12-14T23:32:25.052Z,95086.59
2022-12-14T23:35:11.259Z,95067.56
2022-12-14T23:37:57.707Z,95072.50
2022-12-14T23:40:43.822Z,95084.78
2022-12-14T23:43:34.656Z,95086.00
2022-12-14T23:46:22.528Z,95082.72
2022-12-14T23:49:13.732Z,95075.75
2022-12-14T23:52:02.518Z,95076.19
2022-12-14T23:54:49.325Z,95075.34
2022-12-14T23:57:35.863Z,95085.78
